createdAt,value
2023-03-21T00:02:04.764Z,4.90
2023-03-21T00:04:44.585Z,4.97
2023-03-21T00:07:21.772Z,4.90
2023-03-21T00:09:50.070Z,5.20
2023-03-21T00:12:21.205Z,5.33
2023-03-21T00:14:49.552Z,5.67
2023-03-21T00:17:18.049Z,5.00
2023-03-21T00:19:46.758Z,5.10
2023-03-21T00:22:14.961Z,5.30
2023-03-21T00:24:45.662Z,5.23
2023-03-21T00:27:41.362Z,5.40
2023-03-21T00:30:02.597Z,5.33
2023-03-21T00:32:30.760Z,5.30
2023-03-21T00:35:29.660Z,5.77
2023-03-21T00:37:48.456Z,5.87
2023-03-21T00:40:27.926Z,5.93
2023-03-21T00:42:57.330Z,5.27
2023-03-21T00:45:26.986Z,5.77
2023-03-21T00:47:55.276Z,6.20
2023-03-21T00:50:23.659Z,5.40
2023-03-21T00:52:52.045Z,5.13
2023-03-21T00:55:22.019Z,5.00
2023-03-21T00:58:01.160Z,5.60
2023-03-21T01:00:30.958Z,5.80
2023-03-21T01:03:21.472Z,5.87
2023-03-21T01:06:06.174Z,6.20
2023-03-21T01:08:50.613Z,6.63
2023-03-21T01:11:24.120Z,6.00
2023-03-21T01:13:59.832Z,6.33
2023-03-21T01:16:36.365Z,6.20
2023-03-21T01:19:09.316Z,5.73
2023-03-21T01:21:41.295Z,5.77
2023-03-21T01:24:10.123Z,6.07
2023-03-21T01:26:40.173Z,6.57
2023-03-21T01:29:08.614Z,6.40
2023-03-21T01:31:36.873Z,5.40
2023-03-21T01:34:05.264Z,5.70
2023-03-21T01:36:33.958Z,6.03
2023-03-21T01:39:02.500Z,5.93
2023-03-21T01:41:42.591Z,6.03
2023-03-21T01:44:17.005Z,5.70
2023-03-21T01:47:03.540Z,5.70
2023-03-21T01:49:41.055Z,5.73
2023-03-21T01:52:23.639Z,5.90
2023-03-21T01:54:58.448Z,5.43
2023-03-21T01:57:43.550Z,5.50
2023-03-21T02:00:18.644Z,6.13
2023-03-21T02:02:58.235Z,5.73
2023-03-21T02:05:35.326Z,5.63
2023-03-21T02:08:04.588Z,5.53
2023-03-21T02:10:34.377Z,5.67
2023-03-21T02:13:09.942Z,5.23
2023-03-21T02:15:43.079Z,5.93
2023-03-21T02:18:16.989Z,5.77
2023-03-21T02:21:26.926Z,5.10
2023-03-21T02:24:25.917Z,5.47
2023-03-21T02:27:06.806Z,5.27
2023-03-21T02:30:05.152Z,5.70
2023-03-21T02:32:51.801Z,5.40
2023-03-21T02:35:39.146Z,5.50
2023-03-21T02:38:14.126Z,5.13
2023-03-21T02:40:48.992Z,5.60
2023-03-21T02:43:24.022Z,5.80
2023-03-21T02:45:59.695Z,5.27
2023-03-21T02:48:44.791Z,5.50
2023-03-21T02:51:20.770Z,6.03
2023-03-21T02:54:20.049Z,5.47
2023-03-21T02:56:45.835Z,5.53
2023-03-21T02:59:16.481Z,5.63
2023-03-21T03:01:45.395Z,5.67
2023-03-21T03:04:22.458Z,5.73
2023-03-21T03:07:08.128Z,5.93
2023-03-21T03:09:50.554Z,6.10
2023-03-21T03:12:34.293Z,5.87
2023-03-21T03:15:18.400Z,6.13
2023-03-21T03:17:53.394Z,6.07
2023-03-21T03:20:39.330Z,5.63
2023-03-21T03:23:21.959Z,5.93
2023-03-21T03:25:58.428Z,5.97
2023-03-21T03:28:32.140Z,6.37
2023-03-21T03:31:09.734Z,5.70
2023-03-21T03:33:42.068Z,5.80
2023-03-21T03:36:30.400Z,5.93
2023-03-21T03:39:04.536Z,5.87
2023-03-21T03:42:04.206Z,6.10
2023-03-21T03:44:28.577Z,5.83
2023-03-21T03:47:01.734Z,6.13
2023-03-21T03:49:34.460Z,6.07
2023-03-21T03:52:08.033Z,6.43
2023-03-21T03:54:40.101Z,6.57
2023-03-21T03:57:12.103Z,6.17
2023-03-21T03:59:42.204Z,6.43
2023-03-21T04:02:12.164Z,6.67
2023-03-21T04:04:42.032Z,6.63
2023-03-21T04:07:11.773Z,6.00
2023-03-21T04:09:44.534Z,6.47
2023-03-21T04:12:16.217Z,6.47
2023-03-21T04:14:47.033Z,6.37
2023-03-21T04:17:16.040Z,6.07
2023-03-21T04:19:45.592Z,6.10
2023-03-21T04:22:14.206Z,5.70
2023-03-21T04:24:42.979Z,6.27
2023-03-21T04:27:11.585Z,6.10
2023-03-21T04:29:43.429Z,6.37
2023-03-21T04:32:17.512Z,5.70
2023-03-21T04:34:50.160Z,6.60
2023-03-21T04:37:19.319Z,6.00
2023-03-21T04:39:49.298Z,6.27
2023-03-21T04:42:20.437Z,6.60
2023-03-21T04:44:51.120Z,5.83
2023-03-21T04:47:22.199Z,7.07
2023-03-21T04:49:50.713Z,6.30
2023-03-21T04:52:18.943Z,6.27
2023-03-21T04:54:47.518Z,5.97
2023-03-21T04:57:16.812Z,6.23
2023-03-21T04:59:45.166Z,6.60
2023-03-21T05:02:15.561Z,5.93
2023-03-21T05:04:44.159Z,5.60
2023-03-21T05:07:14.819Z,6.47
2023-03-21T05:09:43.219Z,5.90
2023-03-21T05:12:11.481Z,6.50
2023-03-21T05:14:39.830Z,6.10
2023-03-21T05:17:07.968Z,7.97
2023-03-21T05:19:41.015Z,6.57
2023-03-21T05:22:12.179Z,6.13
2023-03-21T05:24:42.127Z,6.20
2023-03-21T05:27:10.860Z,5.73
2023-03-21T05:29:39.435Z,6.00
2023-03-21T05:32:07.588Z,5.83
2023-03-21T05:34:35.832Z,5.90
2023-03-21T05:37:06.729Z,5.40
2023-03-21T05:39:35.316Z,5.50
2023-03-21T05:42:03.759Z,5.13
2023-03-21T05:44:32.245Z,6.03
2023-03-21T05:47:00.463Z,5.63
2023-03-21T05:49:29.330Z,5.30
2023-03-21T05:51:57.632Z,6.77
2023-03-21T05:54:28.149Z,6.87
2023-03-21T05:56:59.452Z,6.60
2023-03-21T05:59:27.959Z,6.57
2023-03-21T06:01:59.294Z,6.33
2023-03-21T06:04:28.477Z,6.40
2023-03-21T06:06:56.896Z,6.23
2023-03-21T06:09:27.689Z,6.07
2023-03-21T06:11:57.870Z,6.07
2023-03-21T06:14:27.376Z,6.40
2023-03-21T06:16:56.277Z,5.53
2023-03-21T06:19:26.333Z,6.00
2023-03-21T06:21:54.435Z,6.17
2023-03-21T06:24:24.729Z,5.93
2023-03-21T06:26:54.298Z,6.13
2023-03-21T06:29:22.982Z,5.33
2023-03-21T06:31:51.471Z,5.90
2023-03-21T06:34:19.835Z,5.63
2023-03-21T06:36:48.943Z,6.83
2023-03-21T06:39:17.569Z,6.73
2023-03-21T06:41:46.224Z,6.27
2023-03-21T06:44:18.082Z,6.17
2023-03-21T06:46:46.346Z,6.03
2023-03-21T06:49:14.491Z,6.70
2023-03-21T06:51:42.859Z,6.43
2023-03-21T06:54:14.805Z,6.57
2023-03-21T06:56:42.913Z,6.20
2023-03-21T06:59:11.263Z,6.10
2023-03-21T07:01:41.297Z,6.10
2023-03-21T07:04:09.748Z,5.90
2023-03-21T07:06:38.542Z,6.50
2023-03-21T07:09:07.506Z,5.73
2023-03-21T07:11:37.961Z,6.50
2023-03-21T07:14:08.133Z,6.47
2023-03-21T07:16:36.702Z,6.13
2023-03-21T07:19:07.400Z,5.93
2023-03-21T07:21:35.881Z,6.60
2023-03-21T07:24:04.529Z,6.50
2023-03-21T07:26:32.813Z,7.53
2023-03-21T07:29:01.254Z,7.43
2023-03-21T07:31:29.968Z,6.10
2023-03-21T07:33:59.124Z,6.60
2023-03-21T07:36:28.689Z,6.23
2023-03-21T07:38:57.064Z,6.20
2023-03-21T07:41:25.810Z,6.93
2023-03-21T07:43:54.076Z,6.60
2023-03-21T07:46:22.414Z,7.10
2023-03-21T07:48:51.222Z,6.40
2023-03-21T07:51:20.940Z,7.37
2023-03-21T07:53:50.907Z,7.47
2023-03-21T07:56:18.984Z,6.70
2023-03-21T07:58:47.084Z,9.37
2023-03-21T08:01:15.721Z,12.27
2023-03-21T08:03:44.471Z,7.60
2023-03-21T08:06:13.273Z,7.47
2023-03-21T08:08:41.776Z,7.17
2023-03-21T08:11:12.909Z,7.33
2023-03-21T08:13:41.119Z,6.80
2023-03-21T08:16:10.762Z,7.13
2023-03-21T08:18:39.109Z,6.90
2023-03-21T08:21:09.798Z,7.53
2023-03-21T08:23:37.849Z,7.57
2023-03-21T08:26:06.485Z,7.57
2023-03-21T08:28:39.513Z,7.33
2023-03-21T08:31:11.407Z,7.00
2023-03-21T08:33:40.691Z,6.80
2023-03-21T08:36:10.403Z,6.87
2023-03-21T08:38:38.630Z,6.80
2023-03-21T08:41:07.426Z,6.73
2023-03-21T08:43:38.320Z,6.63
2023-03-21T08:46:07.463Z,7.47
2023-03-21T08:48:38.945Z,6.67
2023-03-21T08:51:08.688Z,7.27
2023-03-21T08:53:36.773Z,7.17
2023-03-21T08:56:05.225Z,6.13
2023-03-21T08:58:33.536Z,7.03
2023-03-21T09:01:04.981Z,7.03
2023-03-21T09:03:33.205Z,6.87
2023-03-21T09:06:03.438Z,7.17
2023-03-21T09:08:31.958Z,6.87
2023-03-21T09:11:00.312Z,6.77
2023-03-21T09:13:28.922Z,7.20
2023-03-21T09:15:58.348Z,6.70
2023-03-21T09:18:39.182Z,7.30
2023-03-21T09:21:13.176Z,6.83
2023-03-21T09:23:42.239Z,6.80
2023-03-21T09:26:11.049Z,7.30
2023-03-21T09:28:40.729Z,7.23
2023-03-21T09:31:12.456Z,6.73
2023-03-21T09:33:42.568Z,6.87
2023-03-21T09:36:14.554Z,7.33
2023-03-21T09:38:43.331Z,6.67
2023-03-21T09:41:28.209Z,7.27
2023-03-21T09:44:08.541Z,6.63
2023-03-21T09:46:45.069Z,7.23
2023-03-21T09:49:20.613Z,7.20
2023-03-21T09:51:53.436Z,7.23
2023-03-21T09:54:27.526Z,6.63
2023-03-21T09:56:59.730Z,7.00
2023-03-21T09:59:36.817Z,7.00
2023-03-21T10:02:12.590Z,7.23
2023-03-21T10:04:46.652Z,6.87
2023-03-21T10:07:18.329Z,7.47
2023-03-21T10:09:48.113Z,7.60
2023-03-21T10:12:22.444Z,7.33
2023-03-21T10:14:57.489Z,7.63
2023-03-21T10:17:33.674Z,7.10
2023-03-21T10:20:15.139Z,6.77
2023-03-21T10:22:48.796Z,7.77
2023-03-21T10:25:20.988Z,7.37
2023-03-21T10:27:52.222Z,7.73
2023-03-21T10:30:31.657Z,7.67
2023-03-21T10:33:06.028Z,8.13
2023-03-21T10:35:37.573Z,8.47
2023-03-21T10:38:07.669Z,8.87
2023-03-21T10:40:37.256Z,8.23
2023-03-21T10:43:37.967Z,8.27
2023-03-21T10:46:13.587Z,8.60
2023-03-21T10:48:46.913Z,8.23
2023-03-21T10:51:21.790Z,8.37
2023-03-21T10:53:55.130Z,7.90
2023-03-21T10:56:27.951Z,8.00
2023-03-21T10:59:00.360Z,8.47
2023-03-21T11:01:35.327Z,8.23
2023-03-21T11:04:09.926Z,7.87
2023-03-21T11:06:42.707Z,9.43
2023-03-21T11:09:18.083Z,8.27
2023-03-21T11:11:53.133Z,8.17
2023-03-21T11:14:34.632Z,7.73
2023-03-21T11:17:03.280Z,8.67
2023-03-21T11:19:33.749Z,8.40
2023-03-21T11:22:09.164Z,8.77
2023-03-21T11:24:37.615Z,8.93
2023-03-21T11:27:09.251Z,9.30
2023-03-21T11:29:40.744Z,8.67
2023-03-21T11:32:13.845Z,8.70
2023-03-21T11:34:49.979Z,9.23
2023-03-21T11:37:27.827Z,13.97
2023-03-21T11:40:00.642Z,9.33
2023-03-21T11:42:32.078Z,8.63
2023-03-21T11:45:05.021Z,8.03
2023-03-21T11:47:34.328Z,8.73
2023-03-21T11:50:05.356Z,8.57
2023-03-21T11:52:42.686Z,8.30
2023-03-21T11:55:37.336Z,9.47
2023-03-21T11:58:28.639Z,9.00
2023-03-21T12:01:05.153Z,11.90
2023-03-21T12:03:58.475Z,11.73
2023-03-21T12:06:33.845Z,8.50
2023-03-21T12:09:29.229Z,8.73
2023-03-21T12:12:07.619Z,66.03
2023-03-21T12:14:46.582Z,10.70
2023-03-21T12:17:32.011Z,11.17
2023-03-21T12:20:29.374Z,8.03
2023-03-21T12:23:12.783Z,8.40
2023-03-21T12:25:51.144Z,8.57
2023-03-21T12:28:33.525Z,8.30
2023-03-21T12:31:13.052Z,8.63
2023-03-21T12:33:57.111Z,8.70
2023-03-21T12:36:42.308Z,9.10
2023-03-21T12:39:21.999Z,8.80
2023-03-21T12:42:04.347Z,8.97
2023-03-21T12:44:37.959Z,8.80
2023-03-21T12:47:11.359Z,9.57
2023-03-21T12:49:44.797Z,8.67
2023-03-21T12:52:16.265Z,8.83
2023-03-21T12:54:50.411Z,9.07
2023-03-21T12:57:24.766Z,8.57
2023-03-21T13:00:00.843Z,8.30
2023-03-21T13:02:33.822Z,9.47
2023-03-21T13:05:08.540Z,8.47
2023-03-21T13:07:41.412Z,8.20
2023-03-21T13:10:17.544Z,7.63
2023-03-21T13:12:57.672Z,7.73
2023-03-21T13:15:40.503Z,8.07
2023-03-21T13:18:21.057Z,7.40
2023-03-21T13:20:52.068Z,6.70
2023-03-21T13:23:22.621Z,6.50
2023-03-21T13:25:56.130Z,6.63
2023-03-21T13:28:29.954Z,6.80
2023-03-21T13:31:22.303Z,5.60
2023-03-21T13:33:52.612Z,5.97
2023-03-21T13:36:26.286Z,5.70
2023-03-21T13:39:01.399Z,5.43
2023-03-21T13:41:34.401Z,5.77
2023-03-21T13:44:25.579Z,5.40
2023-03-21T13:46:56.779Z,6.00
2023-03-21T13:49:34.026Z,7.00
2023-03-21T13:52:04.107Z,6.77
2023-03-21T13:54:51.282Z,7.93
2023-03-21T13:57:38.474Z,6.67
2023-03-21T14:00:31.840Z,6.73
2023-03-21T14:03:03.853Z,6.70
2023-03-21T14:05:33.699Z,5.83
2023-03-21T14:08:15.263Z,6.73
2023-03-21T14:10:50.086Z,6.20
2023-03-21T14:13:22.401Z,5.63
2023-03-21T14:15:56.853Z,5.80
2023-03-21T14:18:41.140Z,6.03
2023-03-21T14:21:23.807Z,5.40
2023-03-21T14:23:58.245Z,5.40
2023-03-21T14:26:27.649Z,5.57
2023-03-21T14:28:56.142Z,4.60
2023-03-21T14:31:26.458Z,5.60
2023-03-21T14:33:58.984Z,5.53
2023-03-21T14:36:29.451Z,5.33
2023-03-21T14:39:05.788Z,5.17
2023-03-21T14:41:36.757Z,5.53
2023-03-21T14:44:25.438Z,5.30
2023-03-21T14:47:01.265Z,5.50
2023-03-21T14:49:31.440Z,5.70
2023-03-21T14:52:02.795Z,5.73
2023-03-21T14:54:32.850Z,5.53
2023-03-21T14:57:03.807Z,6.33
2023-03-21T14:59:36.079Z,6.10
2023-03-21T15:02:15.135Z,6.13
2023-03-21T15:04:45.497Z,6.87
2023-03-21T15:07:27.184Z,7.53
2023-03-21T15:09:57.185Z,8.37
2023-03-21T15:12:25.774Z,7.20
2023-03-21T15:14:54.964Z,8.93
2023-03-21T15:17:26.086Z,9.63
2023-03-21T15:19:55.714Z,10.43
2023-03-21T15:22:30.875Z,15.73
2023-03-21T15:25:03.556Z,13.63
2023-03-21T15:27:35.960Z,27.43
2023-03-21T15:30:06.290Z,18.73
2023-03-21T15:32:38.942Z,14.20
2023-03-21T15:35:14.873Z,16.70
2023-03-21T15:37:43.269Z,15.73
2023-03-21T15:40:21.219Z,15.03
2023-03-21T15:42:49.422Z,13.57
2023-03-21T15:45:22.822Z,13.53
2023-03-21T15:47:55.818Z,15.37
2023-03-21T15:50:34.471Z,15.37
2023-03-21T15:53:06.782Z,16.03
2023-03-21T15:55:45.954Z,17.30
2023-03-21T15:58:18.257Z,14.37
2023-03-21T16:00:54.905Z,12.80
2023-03-21T16:03:27.450Z,12.90
2023-03-21T16:06:17.602Z,10.87
2023-03-21T16:08:48.111Z,11.90
2023-03-21T16:11:20.206Z,11.97
2023-03-21T16:13:48.476Z,12.37
2023-03-21T16:16:19.212Z,12.37
2023-03-21T16:18:49.236Z,12.60
2023-03-21T16:21:19.564Z,12.33
2023-03-21T16:23:48.221Z,10.67
2023-03-21T16:26:19.088Z,10.37
2023-03-21T16:28:48.193Z,10.70
2023-03-21T16:31:19.278Z,10.10
2023-03-21T16:33:49.369Z,9.63
2023-03-21T16:36:19.984Z,10.07
2023-03-21T16:38:50.483Z,9.97
2023-03-21T16:41:19.040Z,11.93
2023-03-21T16:43:47.811Z,10.27
2023-03-21T16:46:17.702Z,10.17
2023-03-21T16:48:50.039Z,9.70
2023-03-21T16:53:51.796Z,9.33
2023-03-21T16:56:26.196Z,9.20
2023-03-21T16:58:55.958Z,8.73
2023-03-21T17:01:30.583Z,9.10
2023-03-21T17:04:00.893Z,9.47
2023-03-21T17:06:31.194Z,9.53
2023-03-21T17:09:01.756Z,9.93
2023-03-21T17:11:36.233Z,9.63
2023-03-21T17:14:04.769Z,9.37
2023-03-21T17:16:33.296Z,9.23
2023-03-21T17:19:04.482Z,13.70
2023-03-21T17:21:33.010Z,9.63
2023-03-21T17:24:02.377Z,8.90
2023-03-21T17:26:31.183Z,8.87
2023-03-21T17:28:59.935Z,8.77
2023-03-21T17:31:30.045Z,8.60
2023-03-21T17:33:58.305Z,10.53
2023-03-21T17:36:31.816Z,10.90
2023-03-21T17:39:01.948Z,12.23
2023-03-21T17:41:31.526Z,10.53
2023-03-21T17:44:00.017Z,10.37
2023-03-21T17:46:29.649Z,12.57
2023-03-21T17:48:57.884Z,13.60
2023-03-21T17:51:32.424Z,12.73
2023-03-21T17:54:01.291Z,10.97
2023-03-21T17:56:31.848Z,11.27
2023-03-21T17:59:01.913Z,10.57
2023-03-21T18:01:31.226Z,10.90
2023-03-21T18:04:04.933Z,9.97
2023-03-21T18:06:37.585Z,10.17
2023-03-21T18:09:11.919Z,10.83
2023-03-21T18:11:41.600Z,10.70
2023-03-21T18:14:17.259Z,12.13
2023-03-21T18:16:47.862Z,11.90
2023-03-21T18:19:16.271Z,12.00
2023-03-21T18:21:47.298Z,13.43
2023-03-21T18:24:16.659Z,12.80
2023-03-21T18:26:46.163Z,12.10
2023-03-21T18:32:10.305Z,12.03
2023-03-21T18:34:40.466Z,12.23
2023-03-21T18:37:15.854Z,12.57
2023-03-21T18:39:48.368Z,15.10
2023-03-21T18:42:17.911Z,13.83
2023-03-21T18:44:50.505Z,14.93
2023-03-21T18:47:19.200Z,13.97
2023-03-21T18:50:12.661Z,14.30
2023-03-21T18:52:37.930Z,14.20
2023-03-21T18:55:07.145Z,14.93
2023-03-21T18:57:38.260Z,14.57
2023-03-21T19:00:13.419Z,14.60
2023-03-21T19:02:46.266Z,15.93
2023-03-21T19:05:16.549Z,15.40
2023-03-21T19:07:48.172Z,16.03
2023-03-21T19:10:19.711Z,15.17
2023-03-21T19:12:50.372Z,16.23
2023-03-21T19:15:21.552Z,17.47
2023-03-21T19:20:43.494Z,17.80
2023-03-21T19:23:14.226Z,20.30
2023-03-21T19:25:43.965Z,18.23
2023-03-21T19:28:12.136Z,20.27
2023-03-21T19:30:48.971Z,19.67
2023-03-21T19:33:18.723Z,19.57
2023-03-21T19:35:46.943Z,19.03
2023-03-21T19:38:17.159Z,19.10
2023-03-21T19:40:46.630Z,19.83
2023-03-21T19:43:32.400Z,20.37
2023-03-21T19:46:02.116Z,20.63
2023-03-21T19:48:31.607Z,20.67
2023-03-21T19:53:52.750Z,21.80
2023-03-21T19:56:24.644Z,22.50
2023-03-21T19:58:55.127Z,20.43
2023-03-21T20:01:24.209Z,22.10
2023-03-21T20:03:53.138Z,22.23
2023-03-21T20:06:22.689Z,23.57
2023-03-21T20:11:42.893Z,22.77
2023-03-21T20:14:20.047Z,22.97
2023-03-21T20:16:49.397Z,24.63
2023-03-21T20:19:19.990Z,26.20
2023-03-21T20:21:55.388Z,26.37
2023-03-21T20:24:29.327Z,23.77
2023-03-21T20:26:57.756Z,21.43
2023-03-21T20:30:07.464Z,21.30
2023-03-21T20:32:14.691Z,22.43
2023-03-21T20:34:46.218Z,23.10
2023-03-21T20:37:15.121Z,25.13
2023-03-21T20:39:45.232Z,24.23
2023-03-21T20:42:13.566Z,24.60
2023-03-21T20:44:57.495Z,25.17
2023-03-21T20:47:28.018Z,26.17
2023-03-21T20:49:57.038Z,27.57
2023-03-21T20:53:00.884Z,28.30
2023-03-21T20:55:15.725Z,29.20
2023-03-21T20:57:44.462Z,29.90
2023-03-21T21:00:17.348Z,31.27
2023-03-21T21:02:47.724Z,30.47
2023-03-21T21:05:34.557Z,31.60
2023-03-21T21:08:05.613Z,31.33
2023-03-21T21:10:52.433Z,32.33
2023-03-21T21:13:24.157Z,32.87
2023-03-21T21:15:54.418Z,31.77
2023-03-21T21:18:23.122Z,31.60
2023-03-21T21:20:54.716Z,34.10
2023-03-21T21:23:25.493Z,34.70
2023-03-21T21:25:56.214Z,34.70
2023-03-21T21:28:29.048Z,36.57
2023-03-21T21:30:58.599Z,36.30
2023-03-21T21:33:29.461Z,36.17
2023-03-21T21:35:57.751Z,36.77
2023-03-21T21:38:26.872Z,37.97
2023-03-21T21:41:01.113Z,37.40
2023-03-21T21:43:30.194Z,38.03
2023-03-21T21:45:58.436Z,37.17
2023-03-21T21:48:27.616Z,36.53
2023-03-21T21:50:55.834Z,35.17
2023-03-21T21:53:24.445Z,34.77
2023-03-21T21:55:54.271Z,33.53
2023-03-21T21:58:26.482Z,31.83
2023-03-21T22:00:55.272Z,31.70
2023-03-21T22:03:26.508Z,32.47
2023-03-21T22:05:55.378Z,31.97
2023-03-21T22:08:24.927Z,33.57
2023-03-21T22:10:53.034Z,34.40
2023-03-21T22:13:21.432Z,35.57
2023-03-21T22:15:50.951Z,38.03
2023-03-21T22:18:19.452Z,35.63
2023-03-21T22:20:47.975Z,35.73
2023-03-21T22:23:16.559Z,36.77
2023-03-21T22:25:54.116Z,34.27
2023-03-21T22:28:25.848Z,35.27
2023-03-21T22:30:56.934Z,32.40
2023-03-21T22:33:27.527Z,33.37
2023-03-21T22:35:55.941Z,34.50
2023-03-21T22:38:25.462Z,34.63
2023-03-21T22:40:59.782Z,34.60
2023-03-21T22:43:28.862Z,35.83
2023-03-21T22:45:58.919Z,38.50
2023-03-21T22:48:30.318Z,38.80
2023-03-21T22:50:59.264Z,37.50
2023-03-21T22:53:27.541Z,38.00
2023-03-21T22:55:56.208Z,38.97
2023-03-21T22:58:25.276Z,40.00
2023-03-21T23:00:53.495Z,42.13
2023-03-21T23:03:25.332Z,41.10
2023-03-21T23:05:56.636Z,40.37
2023-03-21T23:08:24.742Z,42.00
2023-03-21T23:10:53.196Z,43.27
2023-03-21T23:13:23.783Z,42.90
2023-03-21T23:15:52.368Z,42.27
2023-03-21T23:18:20.845Z,43.40
2023-03-21T23:20:53.839Z,42.53
2023-03-21T23:23:22.213Z,43.83
2023-03-21T23:25:50.354Z,42.33
2023-03-21T23:28:19.174Z,43.37
2023-03-21T23:30:47.350Z,43.63
2023-03-21T23:33:15.855Z,42.70
2023-03-21T23:35:46.265Z,44.93
2023-03-21T23:38:17.377Z,44.70
2023-03-21T23:40:45.627Z,45.67
2023-03-21T23:43:13.978Z,47.83
2023-03-21T23:45:42.780Z,45.30
2023-03-21T23:48:11.004Z,46.53
2023-03-21T23:50:39.720Z,45.27
2023-03-21T23:53:08.227Z,46.80
2023-03-21T23:55:41.604Z,46.17
2023-03-21T23:58:10.959Z,46.57
